createdAt,value
2018-12-08T00:00:11.628Z,18.69
2018-12-08T00:00:52.362Z,18.65
2018-12-08T00:01:33.165Z,18.69
2018-12-08T00:02:14.065Z,18.69
2018-12-08T00:02:55.331Z,18.7
2018-12-08T00:03:37.008Z,18.67
2018-12-08T00:04:18.300Z,18.75
2018-12-08T00:06:45.502Z,18.7
2018-12-08T00:07:26.242Z,18.72
2018-12-08T00:08:07.018Z,18.66
2018-12-08T00:08:50.596Z,18.67
2018-12-08T00:09:33.141Z,18.7
2018-12-08T00:10:16.883Z,18.67
2018-12-08T00:10:57.717Z,18.67
2018-12-08T00:11:38.519Z,18.69
2018-12-08T00:12:19.233Z,18.67
2018-12-08T00:12:59.948Z,18.75
2018-12-08T00:13:40.682Z,18.69
2018-12-08T00:14:21.470Z,18.69
2018-12-08T00:15:02.320Z,18.69
2018-12-08T00:15:43.070Z,18.73
2018-12-08T00:16:23.853Z,18.67
2018-12-08T00:17:04.572Z,18.65
2018-12-08T00:17:46.145Z,18.69
2018-12-08T00:18:26.938Z,18.67
2018-12-08T00:19:10.597Z,18.7
2018-12-08T00:20:50.753Z,18.72
2018-12-08T00:21:31.448Z,18.7
2018-12-08T00:22:12.226Z,18.7
2018-12-08T00:22:53.046Z,18.7
2018-12-08T00:23:33.865Z,18.69
2018-12-08T00:24:14.595Z,18.65
2018-12-08T00:24:55.319Z,18.69
2018-12-08T00:25:36.077Z,18.67
2018-12-08T00:26:18.141Z,18.62
2018-12-08T00:26:58.935Z,18.67
2018-12-08T00:27:39.705Z,18.72
2018-12-08T00:28:20.537Z,18.75
2018-12-08T00:29:01.688Z,18.7
2018-12-08T00:29:42.514Z,18.72
2018-12-08T00:30:23.504Z,18.72
2018-12-08T00:31:04.234Z,18.7
2018-12-08T00:31:44.992Z,18.75
2018-12-08T00:32:25.805Z,18.65
2018-12-08T00:33:06.658Z,18.76
2018-12-08T00:33:47.518Z,18.75
2018-12-08T00:34:28.237Z,18.75
2018-12-08T00:35:23.626Z,18.73
2018-12-08T00:36:11.170Z,18.6
2018-12-08T00:36:51.938Z,18.75
2018-12-08T00:37:32.679Z,18.63
2018-12-08T00:38:16.764Z,18.69
2018-12-08T00:38:57.515Z,18.76
2018-12-08T00:39:38.423Z,18.75
2018-12-08T00:40:19.184Z,18.8
2018-12-08T00:41:00.012Z,18.78
2018-12-08T00:41:40.717Z,18.72
2018-12-08T00:42:21.438Z,18.7
2018-12-08T00:43:02.192Z,18.75
2018-12-08T00:43:43.011Z,18.67
2018-12-08T00:44:23.801Z,18.65
2018-12-08T00:45:16.708Z,18.7
2018-12-08T00:45:57.505Z,18.7
2018-12-08T00:46:42.267Z,18.73
2018-12-08T00:47:23.096Z,18.73
2018-12-08T00:48:03.844Z,18.63
2018-12-08T00:48:44.575Z,18.66
2018-12-08T00:49:25.333Z,18.72
2018-12-08T00:50:06.040Z,18.72
2018-12-08T00:50:46.807Z,18.7
2018-12-08T00:51:27.565Z,18.72
2018-12-08T00:52:08.390Z,18.73
2018-12-08T00:52:49.096Z,18.7
2018-12-08T00:53:36.822Z,18.66
2018-12-08T00:54:17.637Z,18.72
2018-12-08T00:54:58.349Z,18.69
2018-12-08T00:55:39.047Z,18.69
2018-12-08T00:56:19.804Z,18.7
2018-12-08T00:57:00.567Z,18.67
2018-12-08T00:57:41.423Z,18.75
2018-12-08T00:58:22.146Z,18.7
2018-12-08T00:59:02.903Z,18.76
2018-12-08T00:59:43.693Z,18.75
2018-12-08T01:00:24.489Z,18.72
2018-12-08T01:01:05.293Z,18.72
2018-12-08T01:01:50.295Z,18.69
2018-12-08T01:02:31.045Z,18.7
2018-12-08T01:03:11.856Z,18.7
2018-12-08T01:03:52.582Z,18.75
2018-12-08T01:04:33.315Z,18.67
2018-12-08T01:05:14.067Z,18.75
2018-12-08T01:05:55.468Z,18.7
2018-12-08T01:06:36.338Z,18.75
2018-12-08T01:07:17.157Z,18.73
2018-12-08T01:07:57.904Z,18.69
2018-12-08T01:08:38.652Z,18.76
2018-12-08T01:09:19.391Z,18.65
2018-12-08T01:10:00.138Z,18.69
2018-12-08T01:10:40.929Z,18.72
2018-12-08T01:11:21.632Z,18.73
2018-12-08T01:12:02.365Z,18.75
2018-12-08T01:12:43.156Z,18.75
2018-12-08T01:13:23.902Z,18.65
2018-12-08T01:14:04.701Z,18.72
2018-12-08T01:14:45.425Z,18.65
2018-12-08T01:15:26.158Z,18.67
2018-12-08T01:16:06.968Z,18.63
2018-12-08T01:16:47.688Z,18.62
2018-12-08T01:19:12.140Z,18.73
2018-12-08T01:19:55.727Z,18.73
2018-12-08T01:20:36.443Z,18.7
2018-12-08T01:21:17.158Z,18.69
2018-12-08T01:21:57.956Z,18.69
2018-12-08T01:22:38.781Z,18.76
2018-12-08T01:23:19.566Z,18.7
2018-12-08T01:24:00.321Z,18.7
2018-12-08T01:24:41.123Z,18.7
2018-12-08T01:25:21.944Z,18.75
2018-12-08T01:26:02.666Z,18.75
2018-12-08T01:26:43.391Z,18.7
2018-12-08T01:27:24.155Z,18.73
2018-12-08T01:28:04.886Z,18.7
2018-12-08T01:28:45.675Z,18.62
2018-12-08T01:29:34.775Z,18.75
2018-12-08T01:30:15.559Z,18.7
2018-12-08T01:30:56.422Z,18.72
2018-12-08T01:31:37.210Z,18.7
2018-12-08T01:32:17.992Z,18.72
2018-12-08T01:32:58.737Z,18.7
2018-12-08T01:33:39.411Z,18.75
2018-12-08T01:34:20.162Z,18.72
2018-12-08T01:35:00.945Z,18.67
2018-12-08T01:35:41.755Z,18.72
2018-12-08T01:36:22.564Z,18.72
2018-12-08T01:37:03.264Z,18.75
2018-12-08T01:37:43.976Z,18.72
2018-12-08T01:38:24.764Z,18.67
2018-12-08T01:39:05.532Z,18.67
2018-12-08T01:39:46.228Z,18.69
2018-12-08T01:40:26.926Z,18.73
2018-12-08T01:41:07.711Z,18.66
2018-12-08T01:41:48.521Z,18.69
2018-12-08T01:42:29.258Z,18.69
2018-12-08T01:43:10.282Z,18.69
2018-12-08T01:43:51.003Z,18.65
2018-12-08T01:44:31.691Z,18.72
2018-12-08T01:45:12.410Z,18.72
2018-12-08T01:45:53.176Z,18.7
2018-12-08T01:46:34.006Z,18.72
2018-12-08T01:47:14.716Z,18.65
2018-12-08T01:47:55.523Z,18.63
2018-12-08T01:48:36.329Z,18.67
2018-12-08T01:49:17.123Z,18.67
2018-12-08T01:49:57.885Z,18.75
2018-12-08T01:50:38.606Z,18.67
2018-12-08T01:51:20.155Z,18.7
2018-12-08T01:52:01.256Z,18.75
2018-12-08T01:52:42.064Z,18.7
2018-12-08T01:53:22.812Z,18.73
2018-12-08T01:54:03.629Z,18.72
2018-12-08T01:54:44.340Z,18.69
2018-12-08T01:55:25.100Z,18.67
2018-12-08T01:56:05.860Z,18.67
2018-12-08T01:56:46.564Z,18.65
2018-12-08T01:57:30.692Z,18.75
2018-12-08T01:58:11.405Z,18.67
2018-12-08T01:58:55.316Z,18.69
2018-12-08T01:59:36.107Z,18.72
2018-12-08T02:00:16.869Z,18.7
2018-12-08T02:00:57.615Z,18.67
2018-12-08T02:01:38.439Z,18.67
2018-12-08T02:02:19.231Z,18.76
2018-12-08T02:03:00.022Z,18.75
2018-12-08T02:03:40.733Z,18.75
2018-12-08T02:04:21.546Z,18.69
2018-12-08T02:05:02.311Z,18.73
2018-12-08T02:05:44.735Z,18.67
2018-12-08T02:06:25.448Z,18.69
2018-12-08T02:07:08.486Z,18.66
2018-12-08T02:07:49.312Z,18.72
2018-12-08T02:08:30.180Z,18.67
2018-12-08T02:09:11.705Z,18.75
2018-12-08T02:09:52.818Z,18.65
2018-12-08T02:10:33.590Z,18.78
2018-12-08T02:11:14.307Z,18.62
2018-12-08T02:11:55.073Z,18.72
2018-12-08T02:12:35.876Z,18.69
2018-12-08T02:13:16.623Z,18.67
2018-12-08T02:13:57.384Z,18.75
2018-12-08T02:14:41.538Z,18.69
2018-12-08T02:15:31.501Z,18.66
2018-12-08T02:16:16.118Z,18.69
2018-12-08T02:17:01.015Z,18.69
2018-12-08T02:17:41.757Z,18.75
2018-12-08T02:18:22.559Z,18.72
2018-12-08T02:19:03.325Z,18.7
2018-12-08T02:19:44.116Z,18.7
2018-12-08T02:20:24.885Z,18.73
2018-12-08T02:21:05.582Z,18.72
2018-12-08T02:21:46.306Z,18.7
2018-12-08T02:22:27.168Z,18.75
2018-12-08T02:23:07.890Z,18.72
2018-12-08T02:23:48.587Z,18.69
2018-12-08T02:24:29.332Z,18.72
2018-12-08T02:25:10.114Z,18.7
2018-12-08T02:25:51.751Z,18.75
2018-12-08T02:26:32.550Z,18.67
2018-12-08T02:27:13.297Z,18.7
2018-12-08T02:27:54.044Z,18.67
2018-12-08T02:28:34.760Z,18.73
2018-12-08T02:29:15.457Z,18.72
2018-12-08T02:30:02.196Z,18.73
2018-12-08T02:30:42.910Z,18.67
2018-12-08T02:31:23.617Z,18.76
2018-12-08T02:32:04.423Z,18.72
2018-12-08T02:32:45.179Z,18.69
2018-12-08T02:33:25.988Z,18.73
2018-12-08T02:34:06.734Z,18.7
2018-12-08T02:34:47.500Z,18.69
2018-12-08T02:35:31.246Z,18.72
2018-12-08T02:36:11.977Z,18.78
2018-12-08T02:36:54.954Z,18.72
2018-12-08T02:37:35.690Z,18.7
2018-12-08T02:38:16.429Z,18.67
2018-12-08T02:38:57.242Z,18.7
2018-12-08T02:39:37.911Z,18.73
2018-12-08T02:40:18.671Z,18.73
2018-12-08T02:40:59.509Z,18.72
2018-12-08T02:41:40.306Z,18.72
2018-12-08T02:42:21.083Z,18.65
2018-12-08T02:43:01.790Z,18.73
2018-12-08T02:43:42.481Z,18.7
2018-12-08T02:44:23.202Z,18.7
2018-12-08T02:45:04.010Z,18.76
2018-12-08T02:45:44.769Z,18.69
2018-12-08T02:46:25.590Z,18.75
2018-12-08T02:47:06.317Z,18.72
2018-12-08T02:47:47.041Z,18.7
2018-12-08T02:48:27.865Z,18.7
2018-12-08T02:49:08.637Z,18.67
2018-12-08T02:50:04.301Z,18.73
2018-12-08T02:50:45.012Z,18.76
2018-12-08T02:51:26.722Z,18.72
2018-12-08T02:52:07.558Z,18.69
2018-12-08T02:52:48.350Z,18.75
2018-12-08T02:53:29.139Z,18.67
2018-12-08T02:54:09.862Z,18.75
2018-12-08T02:54:50.543Z,18.67
2018-12-08T02:55:32.792Z,18.67
2018-12-08T02:56:13.599Z,18.7
2018-12-08T02:56:54.324Z,18.75
2018-12-08T02:57:35.066Z,18.67
2018-12-08T02:58:15.846Z,18.66
2018-12-08T02:58:56.634Z,18.7
2018-12-08T02:59:37.451Z,18.67
2018-12-08T03:00:18.219Z,18.63
2018-12-08T03:00:58.949Z,18.72
2018-12-08T03:01:39.680Z,18.7
2018-12-08T03:02:20.439Z,18.8
2018-12-08T03:03:01.250Z,18.72
2018-12-08T03:03:42.049Z,18.72
2018-12-08T03:04:22.820Z,18.69
2018-12-08T03:05:03.530Z,18.66
2018-12-08T03:05:44.298Z,18.7
2018-12-08T03:06:25.119Z,18.7
2018-12-08T03:07:05.905Z,18.72
2018-12-08T03:07:46.593Z,18.72
2018-12-08T03:08:27.330Z,18.75
2018-12-08T03:09:08.144Z,18.72
2018-12-08T03:09:48.929Z,18.75
2018-12-08T03:10:29.656Z,18.69
2018-12-08T03:11:10.410Z,18.7
2018-12-08T03:11:51.261Z,18.7
2018-12-08T03:12:32.073Z,18.67
2018-12-08T03:13:12.845Z,18.7
2018-12-08T03:13:53.541Z,18.75
2018-12-08T03:14:34.341Z,18.72
2018-12-08T03:15:15.125Z,18.73
2018-12-08T03:15:55.863Z,18.69
2018-12-08T03:16:36.558Z,18.69
2018-12-08T03:17:17.255Z,18.67
2018-12-08T03:17:58.109Z,18.75
2018-12-08T03:18:38.905Z,18.72
2018-12-08T03:19:19.737Z,18.7
2018-12-08T03:20:00.493Z,18.69
2018-12-08T03:20:41.234Z,18.65
2018-12-08T03:21:21.994Z,18.67
2018-12-08T03:22:02.791Z,18.75
2018-12-08T03:22:43.653Z,18.72
2018-12-08T03:23:24.336Z,18.69
2018-12-08T03:24:05.061Z,18.75
2018-12-08T03:24:45.878Z,18.69
2018-12-08T03:25:26.653Z,18.69
2018-12-08T03:26:07.428Z,18.67
2018-12-08T03:26:48.125Z,18.67
2018-12-08T03:27:28.926Z,18.73
2018-12-08T03:28:09.671Z,18.76
2018-12-08T03:28:50.400Z,18.73
2018-12-08T03:29:31.096Z,18.69
2018-12-08T03:30:11.812Z,18.75
2018-12-08T03:30:52.595Z,18.67
2018-12-08T03:31:33.371Z,18.7
2018-12-08T03:32:14.705Z,18.72
2018-12-08T03:32:55.488Z,18.67
2018-12-08T03:33:36.259Z,18.69
2018-12-08T03:34:17.024Z,18.73
2018-12-08T03:34:57.811Z,18.72
2018-12-08T03:35:38.513Z,18.7
2018-12-08T03:36:19.288Z,18.73
2018-12-08T03:36:59.994Z,18.72
2018-12-08T03:37:40.822Z,18.72
2018-12-08T03:38:21.637Z,18.73
2018-12-08T03:39:02.394Z,18.72
2018-12-08T03:39:43.153Z,18.7
2018-12-08T03:40:23.952Z,18.73
2018-12-08T03:41:04.785Z,18.65
2018-12-08T03:41:45.519Z,18.67
2018-12-08T03:42:26.205Z,18.7
2018-12-08T03:43:06.977Z,18.7
2018-12-08T03:43:47.758Z,18.69
2018-12-08T03:44:28.502Z,18.75
2018-12-08T03:45:09.243Z,18.66
2018-12-08T03:45:49.996Z,18.7
2018-12-08T03:46:30.784Z,18.73
2018-12-08T03:47:11.579Z,18.6
2018-12-08T03:47:52.387Z,18.72
2018-12-08T03:48:33.139Z,18.72
2018-12-08T03:49:14.669Z,18.67
2018-12-08T03:49:55.408Z,18.72
2018-12-08T03:50:36.136Z,18.72
2018-12-08T03:51:16.871Z,18.72
2018-12-08T03:51:57.578Z,18.69
2018-12-08T03:52:38.390Z,18.67
2018-12-08T03:53:19.373Z,18.7
2018-12-08T03:54:00.183Z,18.72
2018-12-08T03:54:40.951Z,18.7
2018-12-08T03:55:21.721Z,18.66
2018-12-08T03:56:05.669Z,18.75
2018-12-08T03:56:46.437Z,18.75
2018-12-08T03:57:27.209Z,18.72
2018-12-08T03:58:07.976Z,18.7
2018-12-08T03:58:48.692Z,18.78
2018-12-08T03:59:29.472Z,18.72
2018-12-08T04:00:13.254Z,18.75
2018-12-08T04:00:53.995Z,18.75
2018-12-08T04:01:34.835Z,18.67
2018-12-08T04:02:15.452Z,18.67
2018-12-08T04:02:56.216Z,18.72
2018-12-08T04:03:37.019Z,18.7
2018-12-08T04:04:17.790Z,18.65
2018-12-08T04:04:58.575Z,18.75
2018-12-08T04:05:39.320Z,18.69
2018-12-08T04:06:20.096Z,18.7
2018-12-08T04:07:00.897Z,18.75
2018-12-08T04:07:41.720Z,18.72
2018-12-08T04:08:22.444Z,18.75
2018-12-08T04:09:03.164Z,18.7
2018-12-08T04:09:43.900Z,18.67
2018-12-08T04:10:24.704Z,18.67
2018-12-08T04:11:05.501Z,18.75
2018-12-08T04:11:46.321Z,18.67
2018-12-08T04:12:27.101Z,18.67
2018-12-08T04:13:07.825Z,18.72
2018-12-08T04:13:48.552Z,18.69
2018-12-08T04:14:29.329Z,18.67
2018-12-08T04:15:10.109Z,18.69
2018-12-08T04:15:50.849Z,18.7
2018-12-08T04:16:31.624Z,18.7
2018-12-08T04:17:12.431Z,18.73
2018-12-08T04:17:53.274Z,18.69
2018-12-08T04:18:34.103Z,18.69
2018-12-08T04:19:14.761Z,18.7
2018-12-08T04:19:55.599Z,18.67
2018-12-08T04:20:36.409Z,18.7
2018-12-08T04:21:17.102Z,18.66
2018-12-08T04:21:57.849Z,18.69
2018-12-08T04:22:38.561Z,18.67
2018-12-08T04:23:19.349Z,18.7
2018-12-08T04:24:00.100Z,18.69
2018-12-08T04:24:40.833Z,18.67
2018-12-08T04:25:21.590Z,18.66
2018-12-08T04:26:02.378Z,18.67
2018-12-08T04:26:43.192Z,18.67
2018-12-08T04:27:23.964Z,18.69
2018-12-08T04:28:04.679Z,18.69
2018-12-08T04:28:45.404Z,18.69
2018-12-08T04:29:26.179Z,18.69
2018-12-08T04:30:06.975Z,18.7
2018-12-08T04:30:47.783Z,18.7
2018-12-08T04:31:28.567Z,18.67
2018-12-08T04:32:09.254Z,18.67
2018-12-08T04:32:50.038Z,18.69
2018-12-08T04:33:30.787Z,18.69
2018-12-08T04:34:11.498Z,18.67
2018-12-08T04:34:52.205Z,18.7
2018-12-08T04:35:32.924Z,18.67
2018-12-08T04:36:13.720Z,18.73
2018-12-08T04:36:54.497Z,18.65
2018-12-08T04:37:35.287Z,18.67
2018-12-08T04:38:16.064Z,18.69
2018-12-08T04:38:56.783Z,18.7
2018-12-08T04:39:37.514Z,18.69
2018-12-08T04:40:18.286Z,18.72
2018-12-08T04:40:59.048Z,18.72
2018-12-08T04:41:39.808Z,18.67
2018-12-08T04:42:20.560Z,18.69
2018-12-08T04:43:01.317Z,18.69
2018-12-08T04:43:42.133Z,18.75
2018-12-08T04:44:28.858Z,18.69
2018-12-08T04:45:09.578Z,18.69
2018-12-08T04:45:50.293Z,18.69
2018-12-08T04:46:31.061Z,18.69
2018-12-08T04:47:11.809Z,18.72
2018-12-08T04:47:52.626Z,18.7
2018-12-08T04:48:33.420Z,18.69
2018-12-08T04:49:14.249Z,18.67
2018-12-08T04:49:54.970Z,18.66
2018-12-08T04:50:35.750Z,18.67
2018-12-08T04:51:16.532Z,18.67
2018-12-08T04:51:57.261Z,18.69
2018-12-08T04:52:38.013Z,18.72
2018-12-08T04:53:18.716Z,18.72
2018-12-08T04:53:59.513Z,18.73
2018-12-08T04:54:40.279Z,18.66
2018-12-08T04:55:21.030Z,18.7
2018-12-08T04:56:01.778Z,18.73
2018-12-08T04:56:42.623Z,18.69
2018-12-08T04:57:23.522Z,18.67
2018-12-08T04:58:04.220Z,18.69
2018-12-08T04:58:51.587Z,18.7
2018-12-08T04:59:32.346Z,18.69
2018-12-08T05:00:13.153Z,18.65
2018-12-08T05:00:53.874Z,18.75
2018-12-08T05:01:34.579Z,18.67
2018-12-08T05:02:16.297Z,18.67
2018-12-08T05:02:57.047Z,18.67
2018-12-08T05:03:37.844Z,18.73
2018-12-08T05:04:18.638Z,18.7
2018-12-08T05:04:59.312Z,18.72
2018-12-08T05:05:40.055Z,18.7
2018-12-08T05:06:20.744Z,18.65
2018-12-08T05:07:02.289Z,18.69
2018-12-08T05:07:43.103Z,18.67
2018-12-08T05:08:23.862Z,18.78
2018-12-08T05:09:04.625Z,18.7
2018-12-08T05:09:45.417Z,18.75
2018-12-08T05:10:26.197Z,18.73
2018-12-08T05:11:06.952Z,18.67
2018-12-08T05:11:47.648Z,18.7
2018-12-08T05:12:28.369Z,18.69
2018-12-08T05:13:10.236Z,18.66
2018-12-08T05:13:49.934Z,18.72
2018-12-08T05:14:30.765Z,18.69
2018-12-08T05:15:11.570Z,18.67
2018-12-08T05:15:52.253Z,18.69
2018-12-08T05:16:32.990Z,18.7
2018-12-08T05:17:16.609Z,18.73
2018-12-08T05:17:57.120Z,18.7
2018-12-08T05:18:37.844Z,18.69
2018-12-08T05:19:18.560Z,18.7
2018-12-08T05:19:59.292Z,18.72
2018-12-08T05:20:40.142Z,18.72
2018-12-08T05:21:20.920Z,18.66
2018-12-08T05:22:01.750Z,18.75
2018-12-08T05:22:42.464Z,18.7
2018-12-08T05:23:23.225Z,18.66
2018-12-08T05:24:04.007Z,18.75
2018-12-08T05:24:44.823Z,18.69
2018-12-08T05:25:25.631Z,18.75
2018-12-08T05:26:06.403Z,18.7
2018-12-08T05:26:47.171Z,18.72
2018-12-08T05:27:27.985Z,18.69
2018-12-08T05:28:08.836Z,18.65
2018-12-08T05:28:49.569Z,18.7
2018-12-08T05:29:30.310Z,18.72
2018-12-08T05:30:11.058Z,18.69
2018-12-08T05:30:52.041Z,18.7
2018-12-08T05:31:32.798Z,18.73
2018-12-08T05:32:13.477Z,18.66
2018-12-08T05:32:54.228Z,18.69
2018-12-08T05:33:35.014Z,18.75
2018-12-08T05:34:15.714Z,18.67
2018-12-08T05:34:56.480Z,18.67
2018-12-08T05:35:38.282Z,18.69
2018-12-08T05:36:19.114Z,18.75
2018-12-08T05:36:59.959Z,18.7
2018-12-08T05:37:40.700Z,18.73
2018-12-08T05:38:21.450Z,18.7
2018-12-08T05:39:02.167Z,18.72
2018-12-08T05:39:43.649Z,18.67
2018-12-08T05:40:31.075Z,18.7
2018-12-08T05:41:14.599Z,18.72
2018-12-08T05:41:55.356Z,18.7
2018-12-08T05:42:36.093Z,18.67
2018-12-08T05:43:16.917Z,18.73
2018-12-08T05:43:57.701Z,18.7
2018-12-08T05:44:38.457Z,18.67
2018-12-08T05:45:19.204Z,18.73
2018-12-08T05:45:59.926Z,18.67
2018-12-08T05:46:40.718Z,18.73
2018-12-08T05:47:21.485Z,18.75
2018-12-08T05:48:02.199Z,18.73
2018-12-08T05:48:42.991Z,18.66
2018-12-08T05:49:23.743Z,18.66
2018-12-08T05:50:04.576Z,18.66
2018-12-08T05:50:45.328Z,18.73
2018-12-08T05:51:26.066Z,18.73
2018-12-08T05:52:06.849Z,18.69
2018-12-08T05:52:47.590Z,18.67
2018-12-08T05:53:28.316Z,18.7
2018-12-08T05:54:09.022Z,18.69
2018-12-08T05:54:49.733Z,18.67
2018-12-08T05:55:30.552Z,18.69
2018-12-08T05:56:11.292Z,18.7
2018-12-08T05:56:52.064Z,18.7
2018-12-08T05:57:32.765Z,18.67
2018-12-08T05:58:13.489Z,18.73
2018-12-08T05:58:54.197Z,18.67
2018-12-08T05:59:34.992Z,18.67
2018-12-08T06:00:15.736Z,18.72
2018-12-08T06:00:56.446Z,18.69
2018-12-08T06:01:37.248Z,18.67
2018-12-08T06:02:18.041Z,18.75
2018-12-08T06:02:58.857Z,18.67
2018-12-08T06:03:39.583Z,18.7
2018-12-08T06:04:20.283Z,18.67
2018-12-08T06:05:01.109Z,18.69
2018-12-08T06:05:41.870Z,18.66
2018-12-08T06:06:22.602Z,18.7
2018-12-08T06:07:03.326Z,18.7
2018-12-08T06:07:44.091Z,18.7
2018-12-08T06:08:24.882Z,18.7
2018-12-08T06:09:05.612Z,18.65
2018-12-08T06:09:46.350Z,18.75
2018-12-08T06:10:27.164Z,18.67
2018-12-08T06:11:07.928Z,18.75
2018-12-08T06:11:48.707Z,18.72
2018-12-08T06:12:29.489Z,18.73
2018-12-08T06:13:11.991Z,18.75
2018-12-08T06:13:52.733Z,18.69
2018-12-08T06:14:33.506Z,18.72
2018-12-08T06:15:14.369Z,18.7
2018-12-08T06:15:55.202Z,18.67
2018-12-08T06:16:35.992Z,18.67
2018-12-08T06:17:16.708Z,18.72
2018-12-08T06:17:57.511Z,18.72
2018-12-08T06:18:38.359Z,18.69
2018-12-08T06:19:19.077Z,18.67
2018-12-08T06:19:59.820Z,18.72
2018-12-08T06:20:40.549Z,18.72
2018-12-08T06:21:22.154Z,18.7
2018-12-08T06:22:02.958Z,18.67
2018-12-08T06:22:43.745Z,18.7
2018-12-08T06:23:24.480Z,18.65
2018-12-08T06:24:05.251Z,18.72
2018-12-08T06:24:48.226Z,18.69
2018-12-08T06:25:29.012Z,18.69
2018-12-08T06:26:09.847Z,18.7
2018-12-08T06:26:50.624Z,18.67
2018-12-08T06:27:31.334Z,18.72
2018-12-08T06:28:12.120Z,18.7
2018-12-08T06:28:52.886Z,18.72
2018-12-08T06:29:33.734Z,18.75
2018-12-08T06:30:14.465Z,18.75
2018-12-08T06:30:55.165Z,18.72
2018-12-08T06:31:35.866Z,18.72
2018-12-08T06:32:16.637Z,18.67
2018-12-08T06:32:57.396Z,18.67
2018-12-08T06:33:38.244Z,18.67
2018-12-08T06:34:18.958Z,18.7
2018-12-08T06:34:59.712Z,18.66
2018-12-08T06:35:40.600Z,18.73
2018-12-08T06:36:21.330Z,18.66
2018-12-08T06:37:02.035Z,18.73
2018-12-08T06:37:42.741Z,18.67
2018-12-08T06:38:25.313Z,18.7
2018-12-08T06:39:04.372Z,18.72
2018-12-08T06:39:45.125Z,18.76
2018-12-08T06:40:29.252Z,18.72
2018-12-08T06:41:06.723Z,18.75
2018-12-08T06:41:47.886Z,18.7
2018-12-08T06:42:28.761Z,18.67
2018-12-08T06:43:09.509Z,18.76
2018-12-08T06:43:53.101Z,18.7
2018-12-08T06:44:33.895Z,18.69
2018-12-08T06:45:14.602Z,18.67
2018-12-08T06:45:55.283Z,18.7
2018-12-08T06:46:36.069Z,18.73
2018-12-08T06:47:16.852Z,18.72
2018-12-08T06:47:57.683Z,18.72
2018-12-08T06:48:38.494Z,18.75
2018-12-08T06:49:25.913Z,18.72
2018-12-08T06:50:06.655Z,18.75
2018-12-08T06:50:47.397Z,18.75
2018-12-08T06:51:28.133Z,18.62
2018-12-08T06:52:12.651Z,18.69
2018-12-08T06:52:53.053Z,18.76
2018-12-08T06:53:33.757Z,18.75
2018-12-08T06:54:14.564Z,18.81
2018-12-08T06:54:55.339Z,18.76
2018-12-08T06:55:38.241Z,18.73
2018-12-08T06:56:18.305Z,18.81
2018-12-08T06:56:59.056Z,18.72
2018-12-08T06:57:39.844Z,18.76
2018-12-08T06:58:20.567Z,18.7
2018-12-08T06:59:01.274Z,18.72
2018-12-08T06:59:42.005Z,18.76
2018-12-08T07:00:22.737Z,18.65
2018-12-08T07:01:03.542Z,18.72
2018-12-08T07:01:44.262Z,18.73
2018-12-08T07:02:24.975Z,18.76
2018-12-08T07:03:05.752Z,18.72
2018-12-08T07:03:46.536Z,18.66
2018-12-08T07:04:27.309Z,18.66
2018-12-08T07:05:08.012Z,18.72
2018-12-08T07:05:53.412Z,18.7
2018-12-08T07:06:34.143Z,18.76
2018-12-08T07:07:14.959Z,18.69
2018-12-08T07:07:55.731Z,18.67
2018-12-08T07:08:36.573Z,18.72
2018-12-08T07:09:17.321Z,18.75
2018-12-08T07:09:58.068Z,18.66
2018-12-08T07:10:38.905Z,18.67
2018-12-08T07:11:19.645Z,18.72
2018-12-08T07:12:07.035Z,18.7
2018-12-08T07:12:47.737Z,18.75
2018-12-08T07:13:29.327Z,18.73
2018-12-08T07:14:10.106Z,18.75
2018-12-08T07:14:50.826Z,18.7
2018-12-08T07:15:31.535Z,18.75
2018-12-08T07:16:12.363Z,18.73
2018-12-08T07:16:53.138Z,18.7
2018-12-08T07:17:33.921Z,18.73
2018-12-08T07:18:19.666Z,18.75
2018-12-08T07:18:57.522Z,18.63
2018-12-08T07:19:38.371Z,18.78
2018-12-08T07:20:19.141Z,18.73
2018-12-08T07:21:06.656Z,18.66
2018-12-08T07:21:47.384Z,18.73
2018-12-08T07:22:28.128Z,18.75
2018-12-08T07:23:08.906Z,18.72
2018-12-08T07:23:49.696Z,18.65
2018-12-08T07:24:30.435Z,18.66
2018-12-08T07:25:11.152Z,18.67
2018-12-08T07:25:51.900Z,18.73
2018-12-08T07:26:32.566Z,18.76
2018-12-08T07:27:13.389Z,18.75
2018-12-08T07:27:54.109Z,18.66
2018-12-08T07:28:34.810Z,18.69
2018-12-08T07:29:15.615Z,18.72
2018-12-08T07:29:56.368Z,18.78
2018-12-08T07:30:37.186Z,18.78
2018-12-08T07:31:17.878Z,18.69
2018-12-08T07:31:58.541Z,18.7
2018-12-08T07:32:39.285Z,18.72
2018-12-08T07:33:20.041Z,18.7
2018-12-08T07:34:00.847Z,18.75
2018-12-08T07:34:41.640Z,18.7
2018-12-08T07:35:24.205Z,18.67
2018-12-08T07:36:04.945Z,18.75
2018-12-08T07:36:45.713Z,18.72
2018-12-08T07:37:26.490Z,18.75
2018-12-08T07:38:07.233Z,18.78
2018-12-08T07:38:47.951Z,18.7
2018-12-08T07:39:28.950Z,18.76
2018-12-08T07:40:09.755Z,18.75
2018-12-08T07:40:50.576Z,18.75
2018-12-08T07:41:31.380Z,18.75
2018-12-08T07:42:12.149Z,18.7
2018-12-08T07:42:52.975Z,18.75
2018-12-08T07:43:33.695Z,18.7
2018-12-08T07:44:14.428Z,18.73
2018-12-08T07:44:55.306Z,18.7
2018-12-08T07:45:36.022Z,18.75
2018-12-08T07:46:16.861Z,18.73
2018-12-08T07:46:57.680Z,18.72
2018-12-08T07:47:38.502Z,18.76
2018-12-08T07:48:19.290Z,18.73
2018-12-08T07:49:00.004Z,18.76
2018-12-08T07:49:41.624Z,18.72
2018-12-08T07:50:22.410Z,18.75
2018-12-08T07:51:03.148Z,18.76
2018-12-08T07:52:04.550Z,18.72
2018-12-08T07:52:45.318Z,18.75
2018-12-08T07:53:42.346Z,18.73
2018-12-08T07:54:23.170Z,18.82
2018-12-08T07:55:03.936Z,18.73
2018-12-08T07:55:45.026Z,18.76
2018-12-08T07:56:25.519Z,18.8
2018-12-08T07:57:06.368Z,18.73
2018-12-08T07:57:49.407Z,18.75
2018-12-08T07:58:36.655Z,18.75
2018-12-08T07:59:17.420Z,18.7
2018-12-08T07:59:59.604Z,18.76
2018-12-08T08:00:40.393Z,18.8
2018-12-08T08:01:21.244Z,18.75
2018-12-08T08:02:02.068Z,18.78
2018-12-08T08:02:42.818Z,18.76
2018-12-08T08:03:45.455Z,18.76
2018-12-08T08:04:41.191Z,18.75
2018-12-08T08:05:21.903Z,18.76
2018-12-08T08:06:02.673Z,18.73
2018-12-08T08:06:58.217Z,18.75
2018-12-08T08:07:41.710Z,18.76
2018-12-08T08:08:22.446Z,18.78
2018-12-08T08:09:03.229Z,18.78
2018-12-08T08:09:43.997Z,18.76
2018-12-08T08:10:27.633Z,18.81
2018-12-08T08:11:08.448Z,18.8
2018-12-08T08:11:49.274Z,18.78
2018-12-08T08:12:36.949Z,18.84
2018-12-08T08:13:32.227Z,18.8
2018-12-08T08:14:41.036Z,18.81
2018-12-08T08:15:21.795Z,18.81
2018-12-08T08:17:37.309Z,18.73
2018-12-08T08:18:32.764Z,18.82
2018-12-08T08:20:23.622Z,18.85
2018-12-08T08:21:04.358Z,18.82
2018-12-08T08:21:45.172Z,18.85
2018-12-08T08:22:25.974Z,18.78
2018-12-08T08:23:06.689Z,18.84
2018-12-08T08:23:47.391Z,18.82
2018-12-08T08:25:47.713Z,18.76
2018-12-08T08:26:28.685Z,18.73
2018-12-08T08:27:09.315Z,18.82
2018-12-08T08:27:50.191Z,18.8
2018-12-08T08:28:31.001Z,18.75
2018-12-08T08:29:11.783Z,18.76
2018-12-08T08:29:52.494Z,18.88
2018-12-08T08:30:33.256Z,18.85
2018-12-08T08:31:14.009Z,18.88
2018-12-08T08:31:54.832Z,18.87
2018-12-08T08:32:35.834Z,18.76
2018-12-08T08:33:16.601Z,18.82
2018-12-08T08:33:57.336Z,18.8
2018-12-08T08:34:38.096Z,18.78
2018-12-08T08:35:18.875Z,18.81
2018-12-08T08:35:59.642Z,18.82
2018-12-08T08:36:40.403Z,18.84
2018-12-08T08:37:21.126Z,18.9
2018-12-08T08:38:01.925Z,18.81
2018-12-08T08:38:42.741Z,18.78
2018-12-08T08:39:23.499Z,18.88
2018-12-08T08:40:04.272Z,18.88
2018-12-08T08:40:45.107Z,18.81
2018-12-08T08:41:25.918Z,18.8
2018-12-08T08:42:06.720Z,18.87
2018-12-08T08:42:47.606Z,18.85
2018-12-08T08:43:42.053Z,18.85
2018-12-08T08:45:57.793Z,18.9
2018-12-08T08:46:53.237Z,18.9
2018-12-08T08:47:38.318Z,18.88
2018-12-08T08:48:19.047Z,18.88
2018-12-08T08:49:00.414Z,18.91
2018-12-08T08:49:41.169Z,18.9
2018-12-08T08:50:22.026Z,18.91
2018-12-08T08:51:16.663Z,18.91
2018-12-08T08:51:57.556Z,18.9
2018-12-08T08:52:38.390Z,18.92
2018-12-08T08:53:19.168Z,18.9
2018-12-08T08:53:59.968Z,18.91
2018-12-08T08:54:40.716Z,18.91
2018-12-08T08:55:28.301Z,18.91
2018-12-08T08:56:09.057Z,18.98
2018-12-08T08:56:49.770Z,18.9
2018-12-08T08:57:30.629Z,18.91
2018-12-08T08:58:11.518Z,18.95
2018-12-08T08:58:52.204Z,18.99
2018-12-08T08:59:32.927Z,18.94
2018-12-08T09:00:28.404Z,18.92
2018-12-08T09:01:16.323Z,18.94
2018-12-08T09:01:57.060Z,19.02
2018-12-08T09:02:37.791Z,18.9
2018-12-08T09:03:26.286Z,18.94
2018-12-08T09:04:10.017Z,18.95
2018-12-08T09:05:05.398Z,18.98
2018-12-08T09:05:46.170Z,18.99
2018-12-08T09:06:27.003Z,18.91